Time;durP1;ratioP1;P1;durP2;ratioP2;P2;SDS_P1;SDS_P2;PMS_P1;PMS_P2;Temp;Humidity;BMP_temperature;BMP_pressure;BME280_temperature;BME280_humidity;BME280_pressure;Samples;Min_cycle;Max_cycle;Signal;HPM_P1;HPM_P2
2021/10/13 00:00:38;;;;;;;9.13;1.52;;;;;;;;;;4937906;29;20047;-90
2021/10/13 00:03:04;;;;;;;11.02;1.42;;;;;;;;;;4923066;28;20050;-90
2021/10/13 00:05:31;;;;;;;6.28;1.40;;;;;;;;;;4948786;28;20047;-88
2021/10/13 00:07:57;;;;;;;5.60;1.30;;;;;;;;;;4957141;28;20050;-90
2021/10/13 00:10:23;;;;;;;7.88;1.55;;;;;;;;;;4937469;29;20306;-90
2021/10/13 00:12:49;;;;;;;6.07;1.17;;;;;;;;;;4929977;28;20055;-90
2021/10/13 00:15:15;;;;;;;4.78;1.50;;;;;;;;;;4942740;29;20047;-90
2021/10/13 00:17:41;;;;;;;6.10;1.33;;;;;;;;;;4921717;29;20054;-89
2021/10/13 00:20:07;;;;;;;10.00;1.60;;;;;;;;;;4955285;28;20043;-89
2021/10/13 00:22:34;;;;;;;12.02;1.63;;;;;;;;;;4937783;29;20047;-89
2021/10/13 00:25:00;;;;;;;10.95;1.50;;;;;;;;;;4922146;28;20134;-89
2021/10/13 00:27:26;;;;;;;7.78;1.80;;;;;;;;;;4921605;29;20070;-90
2021/10/13 00:29:52;;;;;;;6.75;1.60;;;;;;;;;;4938187;29;20043;-89
2021/10/13 00:32:18;;;;;;;4.45;1.25;;;;;;;;;;4921925;29;20047;-91
2021/10/13 00:34:44;;;;;;;8.88;1.58;;;;;;;;;;4938007;29;20133;-90
2021/10/13 00:37:10;;;;;;;11.60;1.88;;;;;;;;;;4955558;28;20053;-89
2021/10/13 00:39:36;;;;;;;6.38;2.00;;;;;;;;;;4926330;28;20051;-89
2021/10/13 00:42:02;;;;;;;5.60;1.40;;;;;;;;;;4956122;28;20181;-89
2021/10/13 00:44:28;;;;;;;7.93;1.70;;;;;;;;;;4935118;29;20047;-91
2021/10/13 00:46:55;;;;;;;9.02;1.70;;;;;;;;;;4934643;29;20055;-90
2021/10/13 00:49:21;;;;;;;8.38;1.67;;;;;;;;;;4937551;28;20046;-91
2021/10/13 00:51:47;;;;;;;7.80;1.73;;;;;;;;;;4940999;28;20038;-90
2021/10/13 00:54:13;;;;;;;6.80;1.90;;;;;;;;;;4956246;28;20146;-90
2021/10/13 00:56:39;;;;;;;5.60;1.60;;;;;;;;;;4940542;28;20050;-90
2021/10/13 00:59:05;;;;;;;7.20;1.52;;;;;;;;;;4925800;29;20055;-91
2021/10/13 01:01:31;;;;;;;6.03;1.50;;;;;;;;;;4949921;28;20042;-90
2021/10/13 01:04:16;;;;;;;5.55;1.48;;;;;;;;;;4938634;28;20141;-90
2021/10/13 01:06:47;;;;;;;7.95;1.63;;;;;;;;;;4921235;29;20057;-89
2021/10/13 01:09:17;;;;;;;8.55;1.90;;;;;;;;;;4936860;29;20051;-90
2021/10/13 01:11:46;;;;;;;5.95;1.70;;;;;;;;;;4922736;29;20054;-90
2021/10/13 01:14:31;;;;;;;6.45;1.50;;;;;;;;;;4942364;29;20047;-89
2021/10/13 01:17:02;;;;;;;6.75;1.73;;;;;;;;;;4946298;28;20055;-90
2021/10/13 01:19:34;;;;;;;5.75;1.70;;;;;;;;;;4920032;29;20110;-90
2021/10/13 01:22:21;;;;;;;9.55;1.80;;;;;;;;;;4939344;28;20069;-90
2021/10/13 01:25:06;;;;;;;8.52;1.70;;;;;;;;;;4953749;28;20130;-90
2021/10/13 01:27:51;;;;;;;9.73;1.75;;;;;;;;;;4950325;29;20543;-90
2021/10/13 01:30:17;;;;;;;;;;;;;;;;;;4957087;28;20253;-90
2021/10/13 01:32:45;;;;;;;6.82;1.38;;;;;;;;;;4942146;29;19953;-90
2021/10/13 01:35:13;;;;;;;8.20;1.45;;;;;;;;;;4939848;29;20047;-90
2021/10/13 01:37:43;;;;;;;5.78;1.63;;;;;;;;;;4924208;29;20051;-90
2021/10/13 01:40:20;;;;;;;7.70;1.65;;;;;;;;;;4927681;28;20054;-88
2021/10/13 01:42:47;;;;;;;7.40;1.70;;;;;;;;;;4940356;29;20047;-90
2021/10/13 01:45:16;;;;;;;5.95;1.50;;;;;;;;;;4920428;29;20102;-90
2021/10/13 01:47:45;;;;;;;6.97;1.70;;;;;;;;;;4914746;28;20043;-89
2021/10/13 01:50:12;;;;;;;7.55;1.92;;;;;;;;;;4957646;28;20047;-90
2021/10/13 01:52:39;;;;;;;4.43;1.42;;;;;;;;;;4943432;28;20054;-90
2021/10/13 01:55:06;;;;;;;6.20;1.35;;;;;;;;;;4941138;29;20531;-88
2021/10/13 01:57:33;;;;;;;7.72;1.60;;;;;;;;;;4924537;29;20065;-88
2021/10/13 02:00:01;;;;;;;4.63;1.27;;;;;;;;;;4940708;28;20051;-88
2021/10/13 02:02:31;;;;;;;6.47;1.50;;;;;;;;;;4959818;28;20606;-89
2021/10/13 02:04:59;;;;;;;6.07;1.40;;;;;;;;;;4939033;28;20114;-87
2021/10/13 02:07:27;;;;;;;6.28;1.50;;;;;;;;;;4939973;29;20399;-88
2021/10/13 02:09:55;;;;;;;9.25;1.50;;;;;;;;;;4940627;29;20055;-88
2021/10/13 02:12:22;;;;;;;3.85;1.45;;;;;;;;;;4928143;28;20045;-87
2021/10/13 02:14:48;;;;;;;4.20;1.50;;;;;;;;;;4953351;29;20048;-87
2021/10/13 02:17:15;;;;;;;7.32;1.63;;;;;;;;;;4924451;29;20050;-88
2021/10/13 02:19:42;;;;;;;8.45;1.40;;;;;;;;;;4929991;28;20058;-88
2021/10/13 02:22:09;;;;;;;9.45;1.50;;;;;;;;;;4943275;28;20061;-90
2021/10/13 02:24:55;;;;;;;9.20;1.40;;;;;;;;;;4942116;29;20054;-87
2021/10/13 02:27:30;;;;;;;4.80;1.58;;;;;;;;;;4939898;29;20486;-88
2021/10/13 02:29:56;;;;;;;7.33;1.73;;;;;;;;;;4955828;28;20043;-87
2021/10/13 02:32:22;;;;;;;8.25;1.52;;;;;;;;;;4955661;28;20055;-87
2021/10/13 02:34:49;;;;;;;5.18;1.52;;;;;;;;;;4943844;28;20055;-88
2021/10/13 02:37:15;;;;;;;8.73;1.52;;;;;;;;;;4932097;29;20066;-88
2021/10/13 02:39:41;;;;;;;5.93;1.42;;;;;;;;;;4939050;28;20132;-88
2021/10/13 02:42:09;;;;;;;7.57;1.60;;;;;;;;;;4925642;28;20051;-91
2021/10/13 02:44:36;;;;;;;3.80;1.05;;;;;;;;;;4959351;28;20047;-87
2021/10/13 02:47:04;;;;;;;8.75;1.58;;;;;;;;;;4943344;28;20050;-88
2021/10/13 02:49:46;;;;;;;8.07;1.30;;;;;;;;;;4958706;28;20049;-87
2021/10/13 02:52:19;;;;;;;5.53;1.23;;;;;;;;;;4951609;28;20050;-90
2021/10/13 02:54:45;;;;;;;4.55;1.30;;;;;;;;;;4939241;28;20085;-88
2021/10/13 02:57:12;;;;;;;5.43;1.40;;;;;;;;;;4940106;29;20098;-90
2021/10/13 02:59:41;;;;;;;5.28;1.20;;;;;;;;;;4923895;29;20051;-87
2021/10/13 03:02:12;;;;;;;5.32;1.30;;;;;;;;;;4923681;29;20082;-87
2021/10/13 03:04:40;;;;;;;4.15;1.10;;;;;;;;;;4928944;28;20108;-88
2021/10/13 03:07:14;;;;;;;4.22;1.10;;;;;;;;;;4941004;28;20080;-88
2021/10/13 03:09:45;;;;;;;5.95;1.42;;;;;;;;;;4943390;28;20051;-87
2021/10/13 03:12:11;;;;;;;5.47;1.10;;;;;;;;;;4958944;28;20047;-90
2021/10/13 03:14:38;;;;;;;5.55;1.27;;;;;;;;;;4956729;28;20051;-87
2021/10/13 03:17:05;;;;;;;4.20;1.20;;;;;;;;;;4927384;28;20051;-87
2021/10/13 03:19:34;;;;;;;5.30;1.20;;;;;;;;;;4923460;29;20507;-87
2021/10/13 03:22:01;;;;;;;4.50;1.13;;;;;;;;;;4940405;28;20377;-88
2021/10/13 03:24:27;;;;;;;4.90;1.13;;;;;;;;;;4950474;28;20406;-87
2021/10/13 03:26:53;;;;;;;6.82;1.40;;;;;;;;;;4941909;28;20149;-87
2021/10/13 03:29:19;;;;;;;5.60;1.27;;;;;;;;;;4940122;29;20066;-89
2021/10/13 03:31:45;;;;;;;5.65;1.23;;;;;;;;;;4933123;28;20288;-87
2021/10/13 03:34:13;;;;;;;7.13;1.40;;;;;;;;;;4942459;28;20483;-90
2021/10/13 03:36:47;;;;;;;4.35;1.38;;;;;;;;;;4941537;29;20047;-88
2021/10/13 03:39:13;;;;;;;7.55;1.30;;;;;;;;;;4932895;28;20494;-90
2021/10/13 03:41:40;;;;;;;6.63;1.42;;;;;;;;;;4958717;28;20051;-88
2021/10/13 03:44:06;;;;;;;6.25;1.50;;;;;;;;;;4942019;28;20046;-90
2021/10/13 03:46:33;;;;;;;6.38;1.38;;;;;;;;;;4942026;28;20054;-87
2021/10/13 03:48:59;;;;;;;5.25;1.70;;;;;;;;;;4951292;29;20465;-88
2021/10/13 03:51:26;;;;;;;5.35;1.52;;;;;;;;;;4922912;28;20126;-88
2021/10/13 03:53:52;;;;;;;3.95;1.20;;;;;;;;;;4933656;28;20126;-90
2021/10/13 03:56:19;;;;;;;6.40;1.55;;;;;;;;;;4930037;29;20115;-89
2021/10/13 03:58:45;;;;;;;8.15;1.90;;;;;;;;;;4938019;28;20050;-89
2021/10/13 04:01:15;;;;;;;9.55;1.90;;;;;;;;;;4941860;28;20093;-91
2021/10/13 04:03:41;;;;;;;7.40;1.67;;;;;;;;;;4941709;28;20061;-90
2021/10/13 04:06:08;;;;;;;7.25;1.65;;;;;;;;;;4951846;28;20496;-88
2021/10/13 04:08:34;;;;;;;3.90;1.50;;;;;;;;;;4941126;28;20082;-89
2021/10/13 04:11:00;;;;;;;5.97;1.40;;;;;;;;;;4941792;28;20526;-88
2021/10/13 04:13:27;;;;;;;5.13;1.30;;;;;;;;;;4925826;29;20129;-88
2021/10/13 04:15:53;;;;;;;5.35;1.52;;;;;;;;;;4942493;28;20049;-88
2021/10/13 04:18:19;;;;;;;4.55;1.33;;;;;;;;;;4938427;29;20050;-88
2021/10/13 04:20:45;;;;;;;7.78;1.75;;;;;;;;;;4923011;29;20051;-88
2021/10/13 04:23:11;;;;;;;5.95;1.40;;;;;;;;;;4922874;29;20555;-91
2021/10/13 04:25:37;;;;;;;3.53;1.13;;;;;;;;;;4935426;29;20059;-88
2021/10/13 04:28:03;;;;;;;8.02;1.42;;;;;;;;;;4954399;29;20408;-87
2021/10/13 04:30:30;;;;;;;4.72;1.50;;;;;;;;;;4937827;29;20051;-87
2021/10/13 04:32:56;;;;;;;4.32;1.30;;;;;;;;;;4935520;29;20040;-88
2021/10/13 04:35:22;;;;;;;6.10;1.40;;;;;;;;;;4918667;29;20090;-88
2021/10/13 04:37:48;;;;;;;9.65;1.58;;;;;;;;;;4918745;29;20095;-87
2021/10/13 04:40:14;;;;;;;6.03;1.42;;;;;;;;;;4939148;29;20043;-89
2021/10/13 04:42:40;;;;;;;4.53;1.15;;;;;;;;;;4931422;29;20103;-88
2021/10/13 04:45:06;;;;;;;5.68;1.30;;;;;;;;;;4938526;29;20484;-88
2021/10/13 04:47:32;;;;;;;5.80;1.20;;;;;;;;;;4949167;29;20127;-88
2021/10/13 04:49:58;;;;;;;6.60;1.50;;;;;;;;;;4918365;29;20128;-88
2021/10/13 04:52:24;;;;;;;8.93;1.40;;;;;;;;;;4918152;29;20091;-86
2021/10/13 04:54:50;;;;;;;6.78;1.15;;;;;;;;;;4939131;29;20039;-87
2021/10/13 04:57:16;;;;;;;6.90;1.50;;;;;;;;;;4927564;29;20463;-87
2021/10/13 04:59:43;;;;;;;7.03;1.63;;;;;;;;;;4937419;29;20080;-87
2021/10/13 05:02:09;;;;;;;8.50;1.33;;;;;;;;;;4953771;29;20047;-87
2021/10/13 05:04:35;;;;;;;6.38;1.20;;;;;;;;;;4920716;29;20109;-87
2021/10/13 05:07:01;;;;;;;6.63;1.45;;;;;;;;;;4934489;29;20044;-91
2021/10/13 05:09:27;;;;;;;5.32;1.42;;;;;;;;;;4940568;29;20039;-88
2021/10/13 05:11:54;;;;;;;9.20;1.65;;;;;;;;;;4940491;29;20047;-87
2021/10/13 05:14:20;;;;;;;7.15;2.00;;;;;;;;;;4929594;29;20055;-88
2021/10/13 05:16:46;;;;;;;11.35;1.77;;;;;;;;;;4935100;29;20048;-89
2021/10/13 05:19:12;;;;;;;8.45;1.40;;;;;;;;;;4933813;29;20392;-89
2021/10/13 05:21:38;;;;;;;9.13;1.50;;;;;;;;;;4926855;29;20138;-89
2021/10/13 05:24:05;;;;;;;5.97;1.17;;;;;;;;;;4918197;29;20055;-89
2021/10/13 05:26:31;;;;;;;7.95;1.23;;;;;;;;;;4917411;29;20066;-87
2021/10/13 05:29:00;;;;;;;4.65;1.33;;;;;;;;;;4926588;29;20130;-88
2021/10/13 05:31:26;;;;;;;3.78;1.10;;;;;;;;;;4937922;29;20048;-89
2021/10/13 05:33:52;;;;;;;4.60;1.23;;;;;;;;;;4918150;29;20511;-88
2021/10/13 05:36:19;;;;;;;4.88;1.05;;;;;;;;;;4917081;29;20428;-88
2021/10/13 05:38:45;;;;;;;7.03;1.27;;;;;;;;;;4917171;29;20048;-89
2021/10/13 05:41:11;;;;;;;3.22;1.05;;;;;;;;;;4921002;29;21649;-89
2021/10/13 05:43:37;;;;;;;4.75;1.10;;;;;;;;;;4916787;29;20138;-87
2021/10/13 05:46:03;;;;;;;3.53;1.35;;;;;;;;;;4917512;29;20054;-88
2021/10/13 05:48:29;;;;;;;6.78;1.27;;;;;;;;;;4915870;29;20044;-89
2021/10/13 05:50:55;;;;;;;5.30;1.10;;;;;;;;;;4935874;29;20712;-88
2021/10/13 05:53:22;;;;;;;10.85;1.48;;;;;;;;;;4931040;29;20134;-88
2021/10/13 05:55:48;;;;;;;4.32;1.02;;;;;;;;;;4917315;29;20475;-88
2021/10/13 05:58:17;;;;;;;5.70;1.10;;;;;;;;;;4933473;29;20111;-89
2021/10/13 06:00:45;;;;;;;2.70;1.08;;;;;;;;;;4933215;29;20066;-89
2021/10/13 06:03:11;;;;;;;3.53;1.30;;;;;;;;;;4917663;29;20059;-87
2021/10/13 06:05:37;;;;;;;4.50;1.27;;;;;;;;;;4917164;29;20106;-88
2021/10/13 06:08:03;;;;;;;2.10;0.98;;;;;;;;;;4933074;29;20043;-88
2021/10/13 06:10:31;;;;;;;5.85;1.00;;;;;;;;;;4932487;29;20047;-88
2021/10/13 06:12:57;;;;;;;4.80;0.90;;;;;;;;;;4909793;29;20114;-88
2021/10/13 06:15:24;;;;;;;5.07;1.40;;;;;;;;;;4914627;29;20052;-88
2021/10/13 06:17:50;;;;;;;6.35;1.00;;;;;;;;;;4917973;29;20044;-89
2021/10/13 06:20:16;;;;;;;4.97;1.20;;;;;;;;;;4917345;29;20200;-90
2021/10/13 06:22:42;;;;;;;6.78;1.35;;;;;;;;;;4917570;29;20052;-87
2021/10/13 06:25:09;;;;;;;4.80;1.27;;;;;;;;;;4918005;29;20362;-88
2021/10/13 06:27:35;;;;;;;4.28;1.25;;;;;;;;;;4921850;29;20044;-89
2021/10/13 06:30:01;;;;;;;8.65;1.88;;;;;;;;;;4922402;29;20114;-89
2021/10/13 06:32:27;;;;;;;3.30;1.05;;;;;;;;;;4925007;29;20111;-89
2021/10/13 06:34:53;;;;;;;6.05;1.17;;;;;;;;;;4925645;29;20052;-88
2021/10/13 06:37:19;;;;;;;4.65;1.08;;;;;;;;;;4924274;29;20086;-89
2021/10/13 06:39:45;;;;;;;6.93;1.23;;;;;;;;;;4957505;29;20051;-89
2021/10/13 06:42:12;;;;;;;6.72;1.40;;;;;;;;;;4955259;29;20059;-89
2021/10/13 06:44:38;;;;;;;5.93;1.30;;;;;;;;;;4922955;29;20421;-88
2021/10/13 06:47:04;;;;;;;8.20;1.50;;;;;;;;;;4922531;29;20070;-88
2021/10/13 06:49:30;;;;;;;4.50;1.10;;;;;;;;;;4952474;28;20097;-89
2021/10/13 06:51:56;;;;;;;5.88;1.40;;;;;;;;;;4937961;29;20443;-89
2021/10/13 06:54:22;;;;;;;4.07;1.40;;;;;;;;;;4953960;29;20129;-89
2021/10/13 06:56:48;;;;;;;5.10;1.23;;;;;;;;;;4938053;29;20152;-88
2021/10/13 06:59:14;;;;;;;8.65;1.40;;;;;;;;;;4923102;29;20047;-91
2021/10/13 07:01:40;;;;;;;3.45;1.15;;;;;;;;;;4954010;29;20070;-89
2021/10/13 07:04:06;;;;;;;3.75;0.93;;;;;;;;;;4938147;29;20509;-90
2021/10/13 07:06:32;;;;;;;7.55;1.23;;;;;;;;;;4934815;29;20055;-90
2021/10/13 07:08:58;;;;;;;2.55;1.30;;;;;;;;;;4935538;29;20102;-89
2021/10/13 07:11:24;;;;;;;6.30;1.58;;;;;;;;;;4934993;29;20058;-90
2021/10/13 07:13:51;;;;;;;5.78;1.33;;;;;;;;;;4930617;29;20073;-89
2021/10/13 07:16:17;;;;;;;3.60;1.30;;;;;;;;;;4938969;29;20047;-91
2021/10/13 07:18:43;;;;;;;6.60;1.30;;;;;;;;;;4923309;29;20047;-89
2021/10/13 07:21:09;;;;;;;4.10;1.40;;;;;;;;;;4924052;29;20049;-91
2021/10/13 07:23:35;;;;;;;2.90;0.95;;;;;;;;;;4938202;29;20043;-89
2021/10/13 07:26:01;;;;;;;5.80;1.30;;;;;;;;;;4923086;28;20087;-88
2021/10/13 07:28:28;;;;;;;4.38;0.90;;;;;;;;;;4922546;29;20051;-89
2021/10/13 07:30:54;;;;;;;4.53;1.00;;;;;;;;;;4923429;29;20090;-91
2021/10/13 07:33:20;;;;;;;2.35;0.88;;;;;;;;;;4922892;29;20503;-89
2021/10/13 07:35:46;;;;;;;4.38;1.10;;;;;;;;;;4923753;29;20101;-89
2021/10/13 07:38:15;;;;;;;3.33;1.10;;;;;;;;;;4922883;29;20040;-89
2021/10/13 07:40:41;;;;;;;6.45;1.10;;;;;;;;;;4922832;29;20051;-89
2021/10/13 07:43:08;;;;;;;3.63;1.10;;;;;;;;;;4923035;29;20054;-90
2021/10/13 07:45:34;;;;;;;6.50;1.20;;;;;;;;;;4922544;29;20055;-89
2021/10/13 07:48:01;;;;;;;5.45;1.10;;;;;;;;;;4938435;29;20503;-92
2021/10/13 07:50:28;;;;;;;6.45;1.20;;;;;;;;;;4922791;29;20407;-89
2021/10/13 07:52:55;;;;;;;5.65;1.13;;;;;;;;;;4939294;29;20047;-90
2021/10/13 07:55:21;;;;;;;4.75;1.05;;;;;;;;;;4922861;29;20059;-90
2021/10/13 07:57:47;;;;;;;4.68;1.10;;;;;;;;;;4923317;29;20043;-90
2021/10/13 08:00:14;;;;;;;4.88;1.20;;;;;;;;;;4923195;29;20059;-90
2021/10/13 08:02:49;;;;;;;4.38;1.20;;;;;;;;;;4922590;29;20093;-89
2021/10/13 08:05:17;;;;;;;2.83;0.73;;;;;;;;;;4923222;29;20050;-90
2021/10/13 08:07:44;;;;;;;4.82;1.10;;;;;;;;;;4922110;29;20138;-90
2021/10/13 08:10:10;;;;;;;3.00;0.90;;;;;;;;;;4939022;29;20078;-89
2021/10/13 08:12:36;;;;;;;7.20;1.10;;;;;;;;;;4938063;29;20803;-89
2021/10/13 08:15:02;;;;;;;3.55;1.10;;;;;;;;;;4922748;29;20054;-90
2021/10/13 08:17:28;;;;;;;3.30;1.27;;;;;;;;;;4921782;29;20051;-89
2021/10/13 08:19:55;;;;;;;4.03;1.45;;;;;;;;;;4937942;29;20083;-89
2021/10/13 08:22:22;;;;;;;6.10;1.40;;;;;;;;;;4921861;29;20558;-89
2021/10/13 08:24:48;;;;;;;4.55;1.35;;;;;;;;;;4922306;29;20411;-90
2021/10/13 08:27:14;;;;;;;5.03;1.42;;;;;;;;;;4922166;29;20052;-88
2021/10/13 08:29:40;;;;;;;5.50;1.10;;;;;;;;;;4937792;29;20256;-89
2021/10/13 08:32:07;;;;;;;4.63;1.80;;;;;;;;;;4938374;29;20043;-89
2021/10/13 08:34:33;;;;;;;4.60;0.98;;;;;;;;;;4922124;29;20087;-90
2021/10/13 08:36:59;;;;;;;5.60;0.93;;;;;;;;;;4938385;29;20480;-90
2021/10/13 08:39:25;;;;;;;4.40;1.20;;;;;;;;;;4920075;29;20051;-89
2021/10/13 08:41:51;;;;;;;6.68;1.75;;;;;;;;;;4922032;29;20051;-88
2021/10/13 08:44:17;;;;;;;4.82;1.20;;;;;;;;;;4922321;29;20047;-92
2021/10/13 08:46:44;;;;;;;2.42;1.10;;;;;;;;;;4937959;29;20047;-88
2021/10/13 08:49:10;;;;;;;4.60;1.10;;;;;;;;;;4937286;29;20472;-89
2021/10/13 08:51:38;;;;;;;3.38;1.27;;;;;;;;;;4921465;29;20134;-89
2021/10/13 08:54:05;;;;;;;4.07;1.05;;;;;;;;;;4937853;29;20043;-89
2021/10/13 08:56:32;;;;;;;1.45;0.80;;;;;;;;;;4937241;29;20138;-91
2021/10/13 08:58:58;;;;;;;3.15;1.00;;;;;;;;;;4921592;29;20058;-88
2021/10/13 09:01:24;;;;;;;4.32;1.15;;;;;;;;;;4921708;29;20317;-89
2021/10/13 09:03:58;;;;;;;4.50;1.25;;;;;;;;;;4937223;29;20480;-89
2021/10/13 09:06:34;;;;;;;3.30;0.90;;;;;;;;;;4936869;29;20054;-89
2021/10/13 09:09:05;;;;;;;6.32;1.13;;;;;;;;;;4921521;29;20396;-89
2021/10/13 09:11:37;;;;;;;3.67;1.08;;;;;;;;;;4921609;29;20054;-88
2021/10/13 09:14:04;;;;;;;4.22;1.40;;;;;;;;;;4921911;29;20519;-88
2021/10/13 09:16:30;;;;;;;4.20;1.50;;;;;;;;;;4921693;29;20051;-88
2021/10/13 09:18:59;;;;;;;4.53;1.02;;;;;;;;;;4922042;29;20107;-88
2021/10/13 09:21:44;;;;;;;3.58;0.90;;;;;;;;;;4937099;29;20105;-89
2021/10/13 09:24:11;;;;;;;3.28;0.98;;;;;;;;;;4921475;29;20050;-89
2021/10/13 09:26:37;;;;;;;4.47;1.00;;;;;;;;;;4920980;29;20051;-88
2021/10/13 09:29:03;;;;;;;3.60;0.70;;;;;;;;;;4921526;29;20481;-91
2021/10/13 09:31:29;;;;;;;2.88;0.80;;;;;;;;;;4921093;29;20058;-88
2021/10/13 09:33:58;;;;;;;3.38;0.80;;;;;;;;;;4938023;29;20134;-89
2021/10/13 09:36:32;;;;;;;1.92;0.80;;;;;;;;;;4937388;29;20056;-89
2021/10/13 09:39:03;;;;;;;2.40;0.80;;;;;;;;;;4921410;29;20377;-90
2021/10/13 09:41:29;;;;;;;2.35;0.80;;;;;;;;;;4918278;29;20488;-88
2021/10/13 09:43:55;;;;;;;2.75;0.70;;;;;;;;;;4902114;29;20444;-89
2021/10/13 09:46:23;;;;;;;2.75;0.80;;;;;;;;;;4902684;29;20048;-92
2021/10/13 09:48:59;;;;;;;2.92;0.90;;;;;;;;;;4902565;29;20047;-89
2021/10/13 09:51:25;;;;;;;3.92;1.00;;;;;;;;;;4905770;29;20099;-91
2021/10/13 09:53:52;;;;;;;2.03;0.65;;;;;;;;;;4915767;29;20055;-89
2021/10/13 09:56:35;;;;;;;3.05;0.80;;;;;;;;;;4925300;29;20503;-89
2021/10/13 09:59:11;;;;;;;5.47;1.10;;;;;;;;;;4940943;29;20571;-90
2021/10/13 10:01:38;;;;;;;2.05;0.90;;;;;;;;;;4940909;29;20043;-89
2021/10/13 10:04:05;;;;;;;1.92;0.80;;;;;;;;;;4925365;29;20126;-90
2021/10/13 10:06:31;;;;;;;2.25;0.70;;;;;;;;;;4940851;29;20106;-89
2021/10/13 10:08:57;;;;;;;4.88;1.50;;;;;;;;;;4925416;29;20053;-90
2021/10/13 10:11:29;;;;;;;3.25;0.93;;;;;;;;;;4924883;29;20047;-91
2021/10/13 10:13:56;;;;;;;2.25;0.93;;;;;;;;;;4940819;29;20062;-89
2021/10/13 10:16:28;;;;;;;3.67;1.10;;;;;;;;;;4940236;29;20051;-90
2021/10/13 10:18:55;;;;;;;3.85;1.30;;;;;;;;;;4924631;29;20051;-92
2021/10/13 10:21:25;;;;;;;3.78;1.10;;;;;;;;;;4924811;29;20424;-92
2021/10/13 10:23:54;;;;;;;3.42;1.00;;;;;;;;;;4939740;28;20047;-90
2021/10/13 10:26:27;;;;;;;3.13;0.98;;;;;;;;;;4923762;29;20070;-91
2021/10/13 10:28:53;;;;;;;4.00;1.30;;;;;;;;;;4922293;28;20066;-93
2021/10/13 10:31:28;;;;;;;2.22;0.90;;;;;;;;;;4939969;29;20047;-95
2021/10/13 10:34:03;;;;;;;3.10;0.85;;;;;;;;;;4925393;29;20062;-96
2021/10/13 10:36:29;;;;;;;2.88;1.20;;;;;;;;;;4925256;29;20059;-96
2021/10/13 10:38:55;;;;;;;9.98;1.85;;;;;;;;;;4923669;29;20047;-96
2021/10/13 10:41:21;;;;;;;3.83;1.00;;;;;;;;;;4924413;28;20058;-92
2021/10/13 10:43:47;;;;;;;6.07;1.02;;;;;;;;;;4948261;29;20058;-93
2021/10/13 10:46:13;;;;;;;3.17;0.95;;;;;;;;;;4947491;28;20102;-93
2021/10/13 10:48:44;;;;;;;3.97;1.10;;;;;;;;;;4958719;28;20577;-96
2021/10/13 10:51:10;;;;;;;5.47;0.85;;;;;;;;;;4942508;29;20043;-96
2021/10/13 10:53:38;;;;;;;3.35;1.08;;;;;;;;;;4924132;29;20047;-94
2021/10/13 10:56:16;;;;;;;3.38;0.93;;;;;;;;;;4952852;28;20049;-95
2021/10/13 10:58:57;;;;;;;3.75;0.90;;;;;;;;;;4932714;29;20511;-94
2021/10/13 11:01:23;;;;;;;4.47;1.00;;;;;;;;;;4925393;29;20047;-92
2021/10/13 11:03:49;;;;;;;4.70;0.88;;;;;;;;;;4941223;29;20106;-94
2021/10/13 11:06:26;;;;;;;3.97;1.25;;;;;;;;;;4928950;29;20043;-95
2021/10/13 11:08:54;;;;;;;4.53;1.10;;;;;;;;;;4948817;29;20559;-93
2021/10/13 11:11:21;;;;;;;5.40;0.90;;;;;;;;;;4930411;29;20040;-95
2021/10/13 11:14:07;;;;;;;5.30;0.85;;;;;;;;;;4925919;29;20054;-95
2021/10/13 11:16:34;;;;;;;4.57;1.13;;;;;;;;;;4927534;29;20047;-95
2021/10/13 11:19:11;;;;;;;3.90;1.20;;;;;;;;;;4945271;29;20057;-93
2021/10/13 11:21:38;;;;;;;7.13;1.40;;;;;;;;;;4934632;29;20079;-95
2021/10/13 11:24:04;;;;;;;3.38;1.02;;;;;;;;;;4936125;29;20054;-93
2021/10/13 11:26:30;;;;;;;5.40;1.17;;;;;;;;;;4938157;29;20120;-92
2021/10/13 11:28:57;;;;;;;4.18;1.13;;;;;;;;;;4935888;29;20483;-95
2021/10/13 11:31:23;;;;;;;6.03;1.20;;;;;;;;;;4933364;29;20075;-92
2021/10/13 11:33:49;;;;;;;4.95;1.15;;;;;;;;;;4931683;29;20051;-96
2021/10/13 11:36:15;;;;;;;4.85;1.20;;;;;;;;;;4934468;29;20054;-91
2021/10/13 11:38:41;;;;;;;4.72;1.10;;;;;;;;;;4940787;29;20047;-94
2021/10/13 11:41:13;;;;;;;6.07;1.10;;;;;;;;;;4934654;29;20043;-96
2021/10/13 11:43:39;;;;;;;4.25;1.15;;;;;;;;;;4949816;29;20043;-96
2021/10/13 11:46:05;;;;;;;7.45;1.55;;;;;;;;;;4938284;29;20042;-95
2021/10/13 11:48:32;;;;;;;6.43;1.40;;;;;;;;;;4951854;29;20106;-94
2021/10/13 11:51:00;;;;;;;3.75;1.10;;;;;;;;;;4949994;29;20396;-96
2021/10/13 11:53:26;;;;;;;4.20;1.10;;;;;;;;;;4930583;29;20089;-96
2021/10/13 11:55:52;;;;;;;5.13;1.25;;;;;;;;;;4934498;29;20103;-94
2021/10/13 11:58:23;;;;;;;6.43;1.50;;;;;;;;;;4949841;29;20504;-95
2021/10/13 12:00:49;;;;;;;9.27;1.70;;;;;;;;;;4935618;29;20129;-94
2021/10/13 12:03:15;;;;;;;5.60;1.60;;;;;;;;;;4946133;29;20400;-92
2021/10/13 12:05:42;;;;;;;3.97;1.20;;;;;;;;;;4934786;29;20027;-96
2021/10/13 12:08:13;;;;;;;6.22;1.40;;;;;;;;;;4947507;29;20023;-94
2021/10/13 12:10:43;;;;;;;8.50;1.40;;;;;;;;;;4933851;29;20058;-95
2021/10/13 12:13:17;;;;;;;6.45;1.50;;;;;;;;;;4932921;29;20039;-95
2021/10/13 12:15:44;;;;;;;4.65;1.48;;;;;;;;;;4933207;29;20047;-95
2021/10/13 12:18:14;;;;;;;5.13;1.27;;;;;;;;;;5001115;23;20106;-95
2021/10/13 12:20:41;;;;;;;5.43;1.38;;;;;;;;;;4989829;28;20069;-95
2021/10/13 12:23:14;;;;;;;6.43;1.70;;;;;;;;;;4991438;28;20050;-95
2021/10/13 12:25:43;;;;;;;5.75;1.30;;;;;;;;;;4989951;28;20398;-95
2021/10/13 12:28:13;;;;;;;4.35;1.25;;;;;;;;;;4990853;28;20042;-93
2021/10/13 12:30:40;;;;;;;6.43;1.77;;;;;;;;;;4987891;28;20037;-96
2021/10/13 12:33:08;;;;;;;6.22;1.40;;;;;;;;;;4968786;28;20050;-94
2021/10/13 12:35:37;;;;;;;4.72;1.25;;;;;;;;;;5071375;23;20055;-91
2021/10/13 12:38:09;;;;;;;12.13;1.88;;;;;;;;;;4934141;28;20047;-95
2021/10/13 12:40:35;;;;;;;5.90;1.65;;;;;;;;;;4932624;29;20050;-96
2021/10/13 12:43:18;;;;;;;7.85;1.50;;;;;;;;;;5030169;23;20046;-92
2021/10/13 12:45:44;;;;;;;9.00;1.40;;;;;;;;;;5112208;23;20053;-95
2021/10/13 12:48:15;;;;;;;7.53;1.80;;;;;;;;;;4989150;28;20046;-96
2021/10/13 12:51:01;;;;;;;4.35;1.25;;;;;;;;;;4986609;28;20054;-95
2021/10/13 12:53:28;;;;;;;5.10;1.27;;;;;;;;;;4983840;28;20046;-94
2021/10/13 12:55:54;;;;;;;7.68;1.60;;;;;;;;;;5058800;23;20058;-96
2021/10/13 12:58:27;;;;;;;6.20;1.42;;;;;;;;;;4970562;28;20054;-91
2021/10/13 13:00:53;;;;;;;5.68;1.27;;;;;;;;;;4971069;28;20052;-95
2021/10/13 13:03:21;;;;;;;11.32;2.45;;;;;;;;;;4970519;28;20046;-94
2021/10/13 13:05:50;;;;;;;6.47;1.40;;;;;;;;;;4970184;28;20038;-95
2021/10/13 13:08:19;;;;;;;9.25;1.70;;;;;;;;;;4987976;28;20041;-92
2021/10/13 13:10:46;;;;;;;5.15;1.58;;;;;;;;;;4986376;28;20038;-95
2021/10/13 13:13:13;;;;;;;6.95;1.30;;;;;;;;;;4984929;28;20042;-94
2021/10/13 13:15:39;;;;;;;6.60;1.35;;;;;;;;;;4969702;28;20049;-96
2021/10/13 13:18:09;;;;;;;6.45;1.40;;;;;;;;;;4971938;28;20111;-96
2021/10/13 13:20:37;;;;;;;6.47;1.58;;;;;;;;;;4971654;28;20073;-95
2021/10/13 13:23:05;;;;;;;6.30;1.65;;;;;;;;;;5025449;23;20050;-93
2021/10/13 13:25:34;;;;;;;4.97;1.48;;;;;;;;;;4976224;28;20061;-92
2021/10/13 13:28:02;;;;;;;5.85;1.42;;;;;;;;;;4994831;28;20053;-92
2021/10/13 13:30:29;;;;;;;4.13;1.35;;;;;;;;;;5063296;23;20062;-96
2021/10/13 13:33:01;;;;;;;5.10;1.35;;;;;;;;;;4992783;28;20049;-96
2021/10/13 13:35:28;;;;;;;7.03;1.30;;;;;;;;;;4978036;28;20107;-93
2021/10/13 13:37:54;;;;;;;4.35;1.13;;;;;;;;;;4993560;28;20097;-94
2021/10/13 13:40:21;;;;;;;6.45;1.35;;;;;;;;;;4974518;28;20042;-94
2021/10/13 13:42:50;;;;;;;8.98;1.50;;;;;;;;;;4991051;28;20042;-94
2021/10/13 13:45:16;;;;;;;6.13;1.40;;;;;;;;;;4974626;28;20054;-95
2021/10/13 13:47:48;;;;;;;6.18;1.00;;;;;;;;;;4974485;28;20038;-94
2021/10/13 13:50:15;;;;;;;6.32;0.98;;;;;;;;;;4984265;28;20097;-94
2021/10/13 13:52:44;;;;;;;4.85;1.05;;;;;;;;;;4972056;28;20095;-96
2021/10/13 13:55:10;;;;;;;6.15;1.45;;;;;;;;;;4970816;28;20039;-96
2021/10/13 13:57:36;;;;;;;5.47;1.30;;;;;;;;;;4969910;28;20026;-92
2021/10/13 14:00:04;;;;;;;5.63;1.30;;;;;;;;;;4971198;28;20053;-94
2021/10/13 14:02:30;;;;;;;5.68;1.20;;;;;;;;;;4991627;28;20054;-94
2021/10/13 14:04:57;;;;;;;5.55;1.20;;;;;;;;;;4988839;28;20042;-95
2021/10/13 14:07:25;;;;;;;7.03;1.45;;;;;;;;;;4973706;28;20129;-95
2021/10/13 14:09:52;;;;;;;5.78;1.40;;;;;;;;;;4990481;28;20099;-95
2021/10/13 14:12:18;;;;;;;5.93;1.50;;;;;;;;;;4972959;28;20402;-95
2021/10/13 14:14:44;;;;;;;13.50;1.63;;;;;;;;;;4970488;28;20086;-95
2021/10/13 14:17:11;;;;;;;4.18;1.20;;;;;;;;;;4983848;28;20046;-94
2021/10/13 14:19:44;;;;;;;5.53;1.00;;;;;;;;;;4987818;28;20052;-94
2021/10/13 14:22:10;;;;;;;4.07;1.10;;;;;;;;;;4987399;28;20070;-96
2021/10/13 14:24:37;;;;;;;3.72;1.13;;;;;;;;;;4988683;28;20073;-96
2021/10/13 14:27:04;;;;;;;4.05;1.00;;;;;;;;;;4991550;28;20039;-96
2021/10/13 14:29:30;;;;;;;3.72;1.02;;;;;;;;;;4989815;28;20034;-95
2021/10/13 14:31:57;;;;;;;4.05;1.10;;;;;;;;;;4988602;28;20261;-94
2021/10/13 14:34:23;;;;;;;3.45;1.13;;;;;;;;;;4985536;28;20146;-93
2021/10/13 14:36:50;;;;;;;4.63;1.05;;;;;;;;;;4981195;28;20078;-93
2021/10/13 14:39:17;;;;;;;5.03;1.00;;;;;;;;;;4961798;28;20726;-91
2021/10/13 14:41:43;;;;;;;2.85;1.10;;;;;;;;;;4962005;28;20387;-91
2021/10/13 14:44:09;;;;;;;3.67;1.20;;;;;;;;;;4977610;28;20057;-91
2021/10/13 14:46:35;;;;;;;6.90;1.23;;;;;;;;;;4958841;28;20050;-90